Time;durP1;ratioP1;P1;durP2;ratioP2;P2;SDS_P1;SDS_P2;PMS_P1;PMS_P2;Temp;Humidity;BMP_temperature;BMP_pressure;BME280_temperature;BME280_humidity;BME280_pressure;Samples;Min_cycle;Max_cycle;Signal;HPM_P1;HPM_P2
2023/03/28 00:00:51;;;;;;;5.65;1.40;;;;;;;;;;5061238;28;20501;-71
2023/03/28 00:03:21;;;;;;;5.43;1.03;;;;;;;;;;5060453;28;20202;-71
2023/03/28 00:05:49;;;;;;;3.93;2.20;;;;;;;;;;5064315;28;20479;-71
2023/03/28 00:08:16;;;;;;;3.63;1.20;;;;;;;;;;5079542;28;20520;-71
2023/03/28 00:10:45;;;;;;;3.00;1.17;;;;;;;;;;5081938;28;20495;-70
2023/03/28 00:13:14;;;;;;;2.00;0.70;;;;;;;;;;5080970;28;20543;-70
2023/03/28 00:15:51;;;;;;;4.13;0.83;;;;;;;;;;5081193;28;20448;-73
2023/03/28 00:18:28;;;;;;;1.83;0.90;;;;;;;;;;5068989;28;20471;-71
2023/03/28 00:20:56;;;;;;;2.22;0.85;;;;;;;;;;5069511;28;20533;-71
2023/03/28 00:23:35;;;;;;;3.33;1.07;;;;;;;;;;5069589;28;20227;-71
2023/03/28 00:26:07;;;;;;;4.60;0.90;;;;;;;;;;5075399;28;20729;-70
2023/03/28 00:28:36;;;;;;;3.80;0.88;;;;;;;;;;5067202;28;20453;-71
2023/03/28 00:31:05;;;;;;;2.90;0.73;;;;;;;;;;5070547;28;20276;-70
2023/03/28 00:33:35;;;;;;;4.53;1.40;;;;;;;;;;5072496;28;20453;-71
2023/03/28 00:36:05;;;;;;;7.70;1.70;;;;;;;;;;5071107;28;20889;-71
2023/03/28 00:38:33;;;;;;;2.23;1.07;;;;;;;;;;5078083;28;20457;-70
2023/03/28 00:41:00;;;;;;;3.67;1.40;;;;;;;;;;5072884;28;20448;-71
2023/03/28 00:43:39;;;;;;;5.73;0.87;;;;;;;;;;5073576;28;20229;-70
2023/03/28 00:46:09;;;;;;;3.97;0.87;;;;;;;;;;5070049;28;20895;-71
2023/03/28 00:48:38;;;;;;;1.80;0.60;;;;;;;;;;5067326;28;20473;-71
2023/03/28 00:51:07;;;;;;;2.50;0.90;;;;;;;;;;5068804;28;20486;-71
2023/03/28 00:53:35;;;;;;;6.50;1.00;;;;;;;;;;5068621;28;20460;-71
2023/03/28 00:56:06;;;;;;;2.77;1.10;;;;;;;;;;5068720;28;20867;-71
2023/03/28 00:58:35;;;;;;;4.10;1.00;;;;;;;;;;5068932;28;20882;-70
2023/03/28 01:01:03;;;;;;;4.07;0.73;;;;;;;;;;5068715;28;20794;-70
2023/03/28 01:03:34;;;;;;;5.83;0.90;;;;;;;;;;5067504;28;20487;-71
2023/03/28 01:06:04;;;;;;;8.90;1.10;;;;;;;;;;5069460;28;20489;-70
2023/03/28 01:08:33;;;;;;;1.70;0.87;;;;;;;;;;5067656;28;20555;-70
2023/03/28 01:11:02;;;;;;;5.43;1.52;;;;;;;;;;5067140;28;20971;-70
2023/03/28 01:13:31;;;;;;;4.32;0.90;;;;;;;;;;5067311;28;20203;-71
2023/03/28 01:15:59;;;;;;;6.30;1.10;;;;;;;;;;5071033;28;20218;-70
2023/03/28 01:18:29;;;;;;;7.63;1.17;;;;;;;;;;5068501;28;20449;-72
2023/03/28 01:21:09;;;;;;;4.37;1.77;;;;;;;;;;5067615;28;20480;-71
2023/03/28 01:23:50;;;;;;;4.77;0.97;;;;;;;;;;5067130;28;20443;-71
2023/03/28 01:26:36;;;;;;;3.00;0.77;;;;;;;;;;5069365;28;20471;-71
2023/03/28 01:29:24;;;;;;;12.80;1.00;;;;;;;;;;5066786;28;20528;-71
2023/03/28 01:32:15;;;;;;;10.27;1.60;;;;;;;;;;5070699;28;20478;-71
2023/03/28 01:34:54;;;;;;;3.77;0.60;;;;;;;;;;5045270;28;20497;-72
2023/03/28 01:37:30;;;;;;;1.57;0.83;;;;;;;;;;5068879;28;20527;-71
2023/03/28 01:40:19;;;;;;;7.83;1.50;;;;;;;;;;5066800;28;20869;-71
2023/03/28 01:42:53;;;;;;;6.83;1.27;;;;;;;;;;5070313;28;20449;-72
2023/03/28 01:45:28;;;;;;;2.47;0.90;;;;;;;;;;5072428;28;20459;-72
2023/03/28 01:47:59;;;;;;;7.07;1.00;;;;;;;;;;5066123;28;20445;-71
2023/03/28 01:50:39;;;;;;;1.70;0.80;;;;;;;;;;5069407;28;20194;-71
2023/03/28 01:53:11;;;;;;;4.77;1.10;;;;;;;;;;5049379;28;20527;-72
2023/03/28 01:55:40;;;;;;;1.87;0.90;;;;;;;;;;5063404;28;20722;-71
2023/03/28 01:58:18;;;;;;;1.63;0.80;;;;;;;;;;5074814;28;20519;-72
2023/03/28 02:00:49;;;;;;;5.53;0.93;;;;;;;;;;5066881;28;20195;-72
2023/03/28 02:03:23;;;;;;;6.23;0.77;;;;;;;;;;5066094;28;20462;-71
2023/03/28 02:05:56;;;;;;;1.87;0.70;;;;;;;;;;5066176;28;20441;-72
2023/03/28 02:08:30;;;;;;;5.40;1.03;;;;;;;;;;5067935;28;20543;-72
2023/03/28 02:10:58;;;;;;;6.10;1.27;;;;;;;;;;5067377;28;20574;-72
2023/03/28 02:13:28;;;;;;;9.83;1.40;;;;;;;;;;5070149;28;20483;-72
2023/03/28 02:15:57;;;;;;;3.73;1.23;;;;;;;;;;5066153;28;20476;-71
2023/03/28 02:18:28;;;;;;;3.73;1.07;;;;;;;;;;5067938;28;20453;-71
2023/03/28 02:20:59;;;;;;;7.80;1.92;;;;;;;;;;5067291;28;20445;-72
2023/03/28 02:23:35;;;;;;;8.70;1.33;;;;;;;;;;5067402;28;20202;-72
2023/03/28 02:26:03;;;;;;;2.73;0.80;;;;;;;;;;5067767;28;20446;-72
2023/03/28 02:28:31;;;;;;;7.20;0.97;;;;;;;;;;5067643;28;20724;-72
2023/03/28 02:31:02;;;;;;;1.85;0.85;;;;;;;;;;5068337;28;20542;-71
2023/03/28 02:33:39;;;;;;;5.03;1.40;;;;;;;;;;5069006;28;20290;-72
2023/03/28 02:36:25;;;;;;;3.70;1.67;;;;;;;;;;5065598;28;20286;-72
2023/03/28 02:39:00;;;;;;;5.95;1.00;;;;;;;;;;5063304;28;20471;-72
2023/03/28 02:41:32;;;;;;;2.63;0.77;;;;;;;;;;5065855;28;20205;-72
2023/03/28 02:44:10;;;;;;;1.60;0.70;;;;;;;;;;5069250;28;21054;-72
2023/03/28 02:46:45;;;;;;;3.08;1.08;;;;;;;;;;5066674;28;20880;-71
2023/03/28 02:49:39;;;;;;;1.70;0.65;;;;;;;;;;5065072;28;20268;-72
2023/03/28 02:52:14;;;;;;;4.07;1.33;;;;;;;;;;5059295;28;20230;-72
2023/03/28 02:54:51;;;;;;;1.77;0.70;;;;;;;;;;5078109;28;20923;-71
2023/03/28 02:57:24;;;;;;;3.08;1.10;;;;;;;;;;5076290;28;20471;-71
2023/03/28 02:59:54;;;;;;;5.80;1.10;;;;;;;;;;5076393;28;20242;-72
2023/03/28 03:02:22;;;;;;;2.10;0.73;;;;;;;;;;5075044;28;20711;-72
2023/03/28 03:04:56;;;;;;;3.53;0.80;;;;;;;;;;5076081;28;20596;-71
2023/03/28 03:07:26;;;;;;;2.40;0.97;;;;;;;;;;5075624;28;20452;-71
2023/03/28 03:09:56;;;;;;;2.90;0.80;;;;;;;;;;5075666;28;20462;-71
2023/03/28 03:12:23;;;;;;;6.10;1.13;;;;;;;;;;5075788;28;20642;-72
2023/03/28 03:14:51;;;;;;;7.38;1.05;;;;;;;;;;5075033;28;20472;-72
2023/03/28 03:17:20;;;;;;;2.17;0.80;;;;;;;;;;5064562;28;20211;-72
2023/03/28 03:19:48;;;;;;;4.10;1.23;;;;;;;;;;5057765;28;20537;-71
2023/03/28 03:22:15;;;;;;;4.50;2.10;;;;;;;;;;5057420;28;20453;-71
2023/03/28 03:24:43;;;;;;;5.40;0.80;;;;;;;;;;5056569;28;20804;-72
2023/03/28 03:27:12;;;;;;;2.33;0.90;;;;;;;;;;5056293;28;20849;-72
2023/03/28 03:29:39;;;;;;;2.80;1.05;;;;;;;;;;5056900;28;20457;-70
2023/03/28 03:32:06;;;;;;;7.00;1.03;;;;;;;;;;5074907;28;20233;-72
2023/03/28 03:34:35;;;;;;;2.97;1.10;;;;;;;;;;5074467;28;20563;-72
2023/03/28 03:37:03;;;;;;;3.00;0.70;;;;;;;;;;5074732;28;20456;-72
2023/03/28 03:39:34;;;;;;;4.73;1.00;;;;;;;;;;5067306;28;20631;-72
2023/03/28 03:42:02;;;;;;;2.80;0.87;;;;;;;;;;5055728;28;20865;-71
2023/03/28 03:44:30;;;;;;;5.68;1.00;;;;;;;;;;5060865;28;20772;-72
2023/03/28 03:46:57;;;;;;;5.80;1.07;;;;;;;;;;5055817;28;20553;-71
2023/03/28 03:49:25;;;;;;;5.63;1.13;;;;;;;;;;5057245;28;20560;-71
2023/03/28 03:51:52;;;;;;;4.63;1.40;;;;;;;;;;5057249;28;20519;-71
2023/03/28 03:54:21;;;;;;;2.20;1.07;;;;;;;;;;5057309;28;20488;-72
2023/03/28 03:56:48;;;;;;;3.00;1.00;;;;;;;;;;5057095;28;20489;-71
2023/03/28 03:59:16;;;;;;;5.40;0.90;;;;;;;;;;5056620;28;20461;-71
2023/03/28 04:01:45;;;;;;;3.57;2.17;;;;;;;;;;5055210;28;20474;-71
2023/03/28 04:04:12;;;;;;;2.07;0.80;;;;;;;;;;5054639;28;20536;-72
2023/03/28 04:06:40;;;;;;;2.90;1.07;;;;;;;;;;5054947;28;20469;-71
2023/03/28 04:09:07;;;;;;;4.57;1.33;;;;;;;;;;5054731;28;20809;-71
2023/03/28 04:11:35;;;;;;;5.03;1.90;;;;;;;;;;5068902;28;20507;-71
2023/03/28 04:14:03;;;;;;;3.73;2.63;;;;;;;;;;5078550;28;20456;-71
2023/03/28 04:16:33;;;;;;;4.33;0.80;;;;;;;;;;5077270;28;20557;-71
2023/03/28 04:19:02;;;;;;;10.17;1.10;;;;;;;;;;5079342;28;20529;-72
2023/03/28 04:21:34;;;;;;;5.43;1.20;;;;;;;;;;5080971;28;20514;-72
2023/03/28 04:24:01;;;;;;;8.40;1.00;;;;;;;;;;5078744;28;20222;-72
2023/03/28 04:26:34;;;;;;;3.40;0.90;;;;;;;;;;5060638;28;20885;-72
2023/03/28 04:29:03;;;;;;;5.35;1.02;;;;;;;;;;5057899;28;20454;-71
2023/03/28 04:31:34;;;;;;;3.87;1.10;;;;;;;;;;5067426;28;20228;-72
2023/03/28 04:34:05;;;;;;;2.77;0.93;;;;;;;;;;5064637;28;20518;-72
2023/03/28 04:36:33;;;;;;;2.90;0.90;;;;;;;;;;5066983;28;20442;-71
2023/03/28 04:39:02;;;;;;;3.63;0.90;;;;;;;;;;5061828;28;20540;-72
2023/03/28 04:41:30;;;;;;;10.20;1.33;;;;;;;;;;5078026;28;20464;-71
2023/03/28 04:43:58;;;;;;;4.83;1.50;;;;;;;;;;5079561;28;20744;-71
2023/03/28 04:46:27;;;;;;;7.30;1.27;;;;;;;;;;5062442;28;20453;-72
2023/03/28 04:48:54;;;;;;;3.17;0.97;;;;;;;;;;5060122;28;20487;-71
2023/03/28 04:51:27;;;;;;;5.87;1.60;;;;;;;;;;5059020;28;20816;-71
2023/03/28 04:53:54;;;;;;;3.73;1.03;;;;;;;;;;5070479;28;20449;-71
2023/03/28 04:56:22;;;;;;;5.57;1.43;;;;;;;;;;5060220;28;20873;-71
2023/03/28 04:58:54;;;;;;;6.60;2.03;;;;;;;;;;5062378;28;20445;-71
2023/03/28 05:01:21;;;;;;;2.73;0.90;;;;;;;;;;5066255;28;20881;-71
2023/03/28 05:03:48;;;;;;;2.00;0.93;;;;;;;;;;5056380;28;20470;-71
2023/03/28 05:06:16;;;;;;;4.40;1.50;;;;;;;;;;5060314;28;20964;-71
2023/03/28 05:08:44;;;;;;;2.95;1.00;;;;;;;;;;5058342;28;20500;-72
2023/03/28 05:11:13;;;;;;;5.60;1.57;;;;;;;;;;5058067;28;20340;-71
2023/03/28 05:13:43;;;;;;;4.50;1.50;;;;;;;;;;5072131;28;20921;-71
2023/03/28 05:16:10;;;;;;;10.80;1.10;;;;;;;;;;5076371;28;20289;-71
2023/03/28 05:18:43;;;;;;;14.33;2.20;;;;;;;;;;5061365;28;20457;-72
2023/03/28 05:21:20;;;;;;;5.50;1.00;;;;;;;;;;5061413;28;20458;-71
2023/03/28 05:23:50;;;;;;;4.63;1.27;;;;;;;;;;5053596;28;20511;-71
2023/03/28 05:26:20;;;;;;;5.40;1.07;;;;;;;;;;5055293;28;20222;-70
2023/03/28 05:28:48;;;;;;;4.60;2.13;;;;;;;;;;5062756;28;20996;-71
2023/03/28 05:31:16;;;;;;;4.00;1.43;;;;;;;;;;5074160;28;20457;-71
2023/03/28 05:33:46;;;;;;;7.50;1.57;;;;;;;;;;5063135;28;20966;-71
2023/03/28 05:36:13;;;;;;;4.70;1.73;;;;;;;;;;5056088;28;20470;-70
2023/03/28 05:38:41;;;;;;;7.47;2.23;;;;;;;;;;5054897;28;20853;-71
2023/03/28 05:41:15;;;;;;;5.10;1.77;;;;;;;;;;5056811;28;20461;-71
2023/03/28 05:43:42;;;;;;;5.23;1.33;;;;;;;;;;5056552;28;20511;-71
2023/03/28 05:46:11;;;;;;;6.93;1.60;;;;;;;;;;5054881;28;20517;-71
2023/03/28 05:48:38;;;;;;;4.40;1.33;;;;;;;;;;5054529;28;20461;-71
2023/03/28 05:51:11;;;;;;;4.50;1.30;;;;;;;;;;5056601;28;20497;-72
2023/03/28 05:53:39;;;;;;;7.53;1.57;;;;;;;;;;5056719;28;20511;-71
2023/03/28 05:56:18;;;;;;;3.60;1.00;;;;;;;;;;5059148;28;20464;-72
2023/03/28 05:58:49;;;;;;;6.57;1.93;;;;;;;;;;5055825;28;20597;-71
2023/03/28 06:01:26;;;;;;;3.30;1.30;;;;;;;;;;5066999;28;20468;-72
2023/03/28 06:03:54;;;;;;;5.87;0.87;;;;;;;;;;5075251;28;20882;-71
2023/03/28 06:06:21;;;;;;;10.90;1.40;;;;;;;;;;5074780;28;20465;-70
2023/03/28 06:08:48;;;;;;;3.47;1.57;;;;;;;;;;5074469;28;20487;-71
2023/03/28 06:11:17;;;;;;;3.27;0.90;;;;;;;;;;5074825;28;20860;-71
2023/03/28 06:13:44;;;;;;;6.43;1.53;;;;;;;;;;5071846;28;20819;-71
2023/03/28 06:16:17;;;;;;;3.13;0.93;;;;;;;;;;5071174;28;20444;-71
2023/03/28 06:18:45;;;;;;;3.03;0.80;;;;;;;;;;5060392;28;21146;-71
2023/03/28 06:21:13;;;;;;;4.13;1.17;;;;;;;;;;5054106;28;20203;-71
2023/03/28 06:23:41;;;;;;;2.80;1.53;;;;;;;;;;5050891;28;20207;-70
2023/03/28 06:26:08;;;;;;;5.33;1.53;;;;;;;;;;5049683;28;20453;-71
2023/03/28 06:28:35;;;;;;;6.70;1.50;;;;;;;;;;5051687;28;20468;-71
2023/03/28 06:31:03;;;;;;;4.40;1.23;;;;;;;;;;5049310;28;20515;-71
2023/03/28 06:33:32;;;;;;;7.00;2.45;;;;;;;;;;5049879;28;20764;-71
2023/03/28 06:36:00;;;;;;;3.60;1.60;;;;;;;;;;5053201;28;20391;-71
2023/03/28 06:38:27;;;;;;;7.87;1.80;;;;;;;;;;5054949;28;20466;-71
2023/03/28 06:40:55;;;;;;;6.77;1.60;;;;;;;;;;5054010;28;20933;-71
2023/03/28 06:43:24;;;;;;;4.78;1.60;;;;;;;;;;5051552;28;20951;-71
2023/03/28 06:45:52;;;;;;;6.38;2.03;;;;;;;;;;5069592;28;20230;-72
2023/03/28 06:48:20;;;;;;;5.05;1.50;;;;;;;;;;5072930;28;20528;-71
2023/03/28 06:50:50;;;;;;;4.50;1.77;;;;;;;;;;5071646;28;20263;-72
2023/03/28 06:53:17;;;;;;;6.20;1.70;;;;;;;;;;5069975;28;20991;-73
2023/03/28 06:55:45;;;;;;;6.22;1.52;;;;;;;;;;5068614;28;20475;-72
2023/03/28 06:58:19;;;;;;;13.93;2.27;;;;;;;;;;5066864;28;20355;-73
2023/03/28 07:00:47;;;;;;;5.63;1.73;;;;;;;;;;5068736;28;20531;-71
2023/03/28 07:03:15;;;;;;;5.10;2.33;;;;;;;;;;5056369;28;20856;-73
2023/03/28 07:05:43;;;;;;;3.67;1.50;;;;;;;;;;5060986;28;20472;-72
2023/03/28 07:08:13;;;;;;;5.87;1.97;;;;;;;;;;5071120;28;20512;-71
2023/03/28 07:10:47;;;;;;;8.80;2.40;;;;;;;;;;5071479;28;20466;-71
2023/03/28 07:13:16;;;;;;;7.17;2.40;;;;;;;;;;5053040;28;20527;-72
2023/03/28 07:15:52;;;;;;;12.02;2.78;;;;;;;;;;5056788;28;20469;-72
2023/03/28 07:18:21;;;;;;;5.13;2.50;;;;;;;;;;5054971;28;20705;-72
2023/03/28 07:20:49;;;;;;;11.33;2.00;;;;;;;;;;5053925;28;20444;-71
2023/03/28 07:23:19;;;;;;;6.77;2.50;;;;;;;;;;5051099;28;21217;-72
2023/03/28 07:25:47;;;;;;;14.20;2.13;;;;;;;;;;5032259;28;20853;-71
2023/03/28 07:28:20;;;;;;;5.40;1.77;;;;;;;;;;5062696;28;20456;-72
2023/03/28 07:30:47;;;;;;;10.88;1.83;;;;;;;;;;5073475;28;20464;-71
2023/03/28 07:33:14;;;;;;;9.47;1.80;;;;;;;;;;5064584;28;20337;-71
2023/03/28 07:35:42;;;;;;;7.40;1.37;;;;;;;;;;5072790;28;20456;-71
2023/03/28 07:38:10;;;;;;;5.10;2.10;;;;;;;;;;5073207;28;20465;-73
2023/03/28 07:40:40;;;;;;;7.53;1.83;;;;;;;;;;5070873;28;20461;-71
2023/03/28 07:43:08;;;;;;;8.00;1.87;;;;;;;;;;5070478;28;20524;-71
2023/03/28 07:45:36;;;;;;;8.57;1.40;;;;;;;;;;5073605;28;20492;-72
2023/03/28 07:48:12;;;;;;;5.23;1.40;;;;;;;;;;5073083;28;20468;-72
2023/03/28 07:50:41;;;;;;;5.75;1.40;;;;;;;;;;5056289;28;20456;-72
2023/03/28 07:53:08;;;;;;;5.30;1.13;;;;;;;;;;5053407;28;20223;-71
2023/03/28 07:55:37;;;;;;;7.80;1.67;;;;;;;;;;5052615;28;20488;-72
2023/03/28 07:58:07;;;;;;;7.45;2.00;;;;;;;;;;5040921;28;20467;-72
2023/03/28 08:00:35;;;;;;;13.77;1.93;;;;;;;;;;5075052;28;20215;-71
2023/03/28 08:03:13;;;;;;;6.77;2.67;;;;;;;;;;5075650;28;20526;-72
2023/03/28 08:05:50;;;;;;;14.70;2.10;;;;;;;;;;5052635;28;20483;-71
2023/03/28 08:08:24;;;;;;;12.73;1.53;;;;;;;;;;5053139;28;20461;-72
2023/03/28 08:10:57;;;;;;;6.75;1.85;;;;;;;;;;5051591;28;20518;-72
2023/03/28 08:16:18;;;;;;;5.53;1.57;;;;;;;;;;5051449;28;20826;-72
2023/03/28 08:18:47;;;;;;;8.60;1.40;;;;;;;;;;5050494;28;20460;-72
2023/03/28 08:21:15;;;;;;;7.00;1.65;;;;;;;;;;5050963;28;20751;-71
2023/03/28 08:23:49;;;;;;;1.98;0.95;;;;;;;;;;5054217;28;20796;-72
2023/03/28 08:26:24;;;;;;;7.13;1.70;;;;;;;;;;5051962;28;20220;-72
2023/03/28 08:28:57;;;;;;;8.20;1.30;;;;;;;;;;5051945;28;20527;-73
2023/03/28 08:31:26;;;;;;;6.43;2.03;;;;;;;;;;5053458;28;20461;-72
2023/03/28 08:33:57;;;;;;;12.50;1.80;;;;;;;;;;5048927;28;20523;-72
2023/03/28 08:36:26;;;;;;;9.47;1.60;;;;;;;;;;5050102;28;20464;-71
2023/03/28 08:38:59;;;;;;;2.70;0.93;;;;;;;;;;5050767;28;20476;-73
2023/03/28 08:41:39;;;;;;;7.25;1.33;;;;;;;;;;5052019;28;20454;-72
2023/03/28 08:44:23;;;;;;;4.23;1.50;;;;;;;;;;5052361;28;20212;-72
2023/03/28 08:46:56;;;;;;;4.60;1.03;;;;;;;;;;5031448;28;21106;-71
2023/03/28 08:49:26;;;;;;;4.37;1.10;;;;;;;;;;5032051;28;20473;-73
2023/03/28 08:51:56;;;;;;;6.53;1.30;;;;;;;;;;5029482;28;20462;-72
2023/03/28 08:54:25;;;;;;;6.30;1.70;;;;;;;;;;5052607;28;20592;-72
2023/03/28 08:57:01;;;;;;;6.90;2.20;;;;;;;;;;5050871;28;20905;-72
2023/03/28 08:59:38;;;;;;;4.38;1.05;;;;;;;;;;5053214;28;20536;-72
2023/03/28 09:02:19;;;;;;;3.87;1.20;;;;;;;;;;5038624;28;20219;-71
2023/03/28 09:04:48;;;;;;;4.57;1.10;;;;;;;;;;5048905;28;21017;-71
2023/03/28 09:07:21;;;;;;;10.20;1.20;;;;;;;;;;5054529;28;20450;-71
2023/03/28 09:10:10;;;;;;;5.32;1.13;;;;;;;;;;5043037;28;20468;-72
2023/03/28 09:16:17;;;;;;;8.57;1.80;;;;;;;;;;4972347;28;20482;-72
2023/03/28 09:19:14;;;;;;;6.40;1.23;;;;;;;;;;5049001;28;20449;-72
2023/03/28 09:21:46;;;;;;;2.90;1.30;;;;;;;;;;5034735;28;20601;-72
2023/03/28 09:24:23;;;;;;;9.03;1.93;;;;;;;;;;5031396;28;20870;-72
2023/03/28 09:27:01;;;;;;;9.40;1.90;;;;;;;;;;5031293;28;20454;-72
2023/03/28 09:29:31;;;;;;;5.00;1.63;;;;;;;;;;5030995;28;20525;-72
2023/03/28 09:32:17;;;;;;;4.23;1.63;;;;;;;;;;5041500;28;20469;-72
2023/03/28 09:34:49;;;;;;;5.93;1.50;;;;;;;;;;5052487;28;20484;-71
2023/03/28 09:37:22;;;;;;;7.63;1.73;;;;;;;;;;5048733;28;20868;-71
2023/03/28 09:39:52;;;;;;;5.03;1.50;;;;;;;;;;5047333;28;20466;-72
2023/03/28 09:42:29;;;;;;;5.23;1.60;;;;;;;;;;5050057;28;20552;-72
2023/03/28 09:44:59;;;;;;;4.60;1.17;;;;;;;;;;5052413;28;20477;-71
2023/03/28 09:47:30;;;;;;;5.30;1.10;;;;;;;;;;5067539;28;20449;-72
2023/03/28 09:50:01;;;;;;;3.47;1.03;;;;;;;;;;5065384;28;20299;-73
2023/03/28 09:52:59;;;;;;;5.00;1.73;;;;;;;;;;5072125;28;20464;-72
2023/03/28 09:55:29;;;;;;;9.23;2.53;;;;;;;;;;5070799;28;20457;-72
2023/03/28 09:58:40;;;;;;;3.67;1.03;;;;;;;;;;5064832;28;20851;-71
2023/03/28 10:01:39;;;;;;;12.30;2.42;;;;;;;;;;5051000;28;20468;-73
2023/03/28 10:07:21;;;;;;;3.67;0.87;;;;;;;;;;5052010;28;20535;-72
2023/03/28 10:13:09;;;;;;;5.95;1.23;;;;;;;;;;5049776;28;20217;-71
2023/03/28 10:15:42;;;;;;;5.45;2.15;;;;;;;;;;5051866;28;20242;-71
2023/03/28 10:18:17;;;;;;;2.23;1.10;;;;;;;;;;5050950;28;20199;-72
2023/03/28 10:20:51;;;;;;;1.97;0.70;;;;;;;;;;5051130;28;20474;-71
2023/03/28 10:23:24;;;;;;;2.43;0.90;;;;;;;;;;5049005;28;20725;-72
2023/03/28 10:26:06;;;;;;;7.87;1.00;;;;;;;;;;5048644;28;20461;-72
2023/03/28 10:28:34;;;;;;;4.25;0.90;;;;;;;;;;5048399;28;20802;-71
2023/03/28 10:31:06;;;;;;;5.13;1.23;;;;;;;;;;5050105;28;20928;-72
2023/03/28 10:33:41;;;;;;;4.27;0.90;;;;;;;;;;5047979;28;20480;-72
2023/03/28 10:36:30;;;;;;;7.10;1.33;;;;;;;;;;5058913;28;20460;-73
2023/03/28 10:38:58;;;;;;;9.87;1.00;;;;;;;;;;5071840;28;20845;-71
2023/03/28 10:41:27;;;;;;;3.23;1.10;;;;;;;;;;5072484;28;20506;-71
2023/03/28 10:44:04;;;;;;;6.73;1.10;;;;;;;;;;5072248;28;20499;-71
2023/03/28 10:46:33;;;;;;;4.23;1.30;;;;;;;;;;5067023;28;20472;-71
2023/03/28 10:49:03;;;;;;;6.30;1.00;;;;;;;;;;5065732;28;20452;-71
2023/03/28 10:51:33;;;;;;;3.50;1.00;;;;;;;;;;5056869;28;20455;-71
2023/03/28 10:54:18;;;;;;;4.70;1.40;;;;;;;;;;5061179;28;20553;-71
2023/03/28 10:56:52;;;;;;;11.47;3.27;;;;;;;;;;5054362;28;20461;-71
2023/03/28 10:59:36;;;;;;;7.23;1.97;;;;;;;;;;5068386;28;20748;-71
2023/03/28 11:02:39;;;;;;;7.03;1.10;;;;;;;;;;5057045;28;20861;-71
2023/03/28 11:05:18;;;;;;;4.07;1.00;;;;;;;;;;4969212;28;20433;-71
2023/03/28 11:08:15;;;;;;;4.97;1.20;;;;;;;;;;4966024;28;20767;-72
2023/03/28 11:10:51;;;;;;;5.10;1.50;;;;;;;;;;4953173;28;21064;-72
2023/03/28 11:13:38;;;;;;;5.23;1.50;;;;;;;;;;4948859;28;20468;-72
2023/03/28 11:16:09;;;;;;;2.65;0.82;;;;;;;;;;4986180;28;20444;-71
2023/03/28 11:18:52;;;;;;;3.10;1.10;;;;;;;;;;5072770;28;20205;-70
2023/03/28 11:21:29;;;;;;;3.90;1.27;;;;;;;;;;5057624;28;20617;-71
2023/03/28 11:24:19;;;;;;;5.20;1.20;;;;;;;;;;5060490;28;20467;-70
2023/03/28 11:27:03;;;;;;;3.30;1.00;;;;;;;;;;5076362;28;20233;-71
2023/03/28 11:38:13;;;;;;;8.40;1.40;;;;;;;;;;5051775;28;20449;-71
2023/03/28 11:41:03;;;;;;;4.45;1.13;;;;;;;;;;5052644;28;20209;-72
2023/03/28 11:43:36;;;;;;;4.03;1.00;;;;;;;;;;5052258;28;20205;-71
2023/03/28 11:46:10;;;;;;;5.10;1.13;;;;;;;;;;5053913;28;20531;-71
2023/03/28 11:48:42;;;;;;;2.40;1.40;;;;;;;;;;5056088;28;20934;-71
2023/03/28 11:51:18;;;;;;;5.93;1.10;;;;;;;;;;5049520;28;20771;-72
2023/03/28 11:56:40;;;;;;;3.83;1.60;;;;;;;;;;5048942;28;20519;-71
2023/03/28 11:59:13;;;;;;;4.03;1.05;;;;;;;;;;5049088;28;20211;-72
2023/03/28 12:01:47;;;;;;;3.37;1.47;;;;;;;;;;5038845;28;20209;-71
2023/03/28 12:04:20;;;;;;;5.33;1.30;;;;;;;;;;5039535;28;20458;-71
2023/03/28 12:06:52;;;;;;;4.67;2.43;;;;;;;;;;5048151;28;20478;-71
2023/03/28 12:09:25;;;;;;;10.07;1.60;;;;;;;;;;5048535;28;21073;-73
2023/03/28 12:12:05;;;;;;;5.93;0.83;;;;;;;;;;5049591;28;21066;-72
2023/03/28 12:14:55;;;;;;;5.40;1.03;;;;;;;;;;5045208;28;20481;-72
2023/03/28 12:17:24;;;;;;;3.20;1.20;;;;;;;;;;5049955;28;20470;-71
2023/03/28 12:19:52;;;;;;;5.00;0.90;;;;;;;;;;5039846;28;20475;-71
2023/03/28 12:22:25;;;;;;;3.25;0.70;;;;;;;;;;5041440;28;21059;-71
2023/03/28 12:25:04;;;;;;;7.07;1.27;;;;;;;;;;5037901;28;20470;-71
2023/03/28 12:27:41;;;;;;;2.53;1.00;;;;;;;;;;5035474;28;20476;-72
2023/03/28 12:30:24;;;;;;;4.97;1.80;;;;;;;;;;5045070;28;20535;-72
2023/03/28 12:32:58;;;;;;;5.80;1.20;;;;;;;;;;5040834;28;20456;-72
2023/03/28 12:35:30;;;;;;;4.40;1.17;;;;;;;;;;5049710;28;20474;-72
2023/03/28 12:38:04;;;;;;;7.80;1.90;;;;;;;;;;5042562;28;20462;-72
2023/03/28 12:40:44;;;;;;;3.50;0.90;;;;;;;;;;5050492;28;20516;-72
2023/03/28 12:43:15;;;;;;;3.40;1.40;;;;;;;;;;5050577;28;20446;-73
2023/03/28 12:45:44;;;;;;;6.00;1.30;;;;;;;;;;5038960;28;20483;-72
2023/03/28 12:51:39;;;;;;;18.90;2.72;;;;;;;;;;5050941;28;20568;-72
2023/03/28 12:54:30;;;;;;;2.92;0.90;;;;;;;;;;5041979;28;20234;-71
2023/03/28 12:57:02;;;;;;;9.60;1.63;;;;;;;;;;5032548;28;20199;-73
2023/03/28 12:59:47;;;;;;;3.30;1.10;;;;;;;;;;5036948;28;20468;-72
2023/03/28 13:05:05;;;;;;;6.13;1.60;;;;;;;;;;5067386;28;20233;-73
2023/03/28 13:07:45;;;;;;;4.87;2.10;;;;;;;;;;5070534;28;20481;-73
2023/03/28 13:10:26;;;;;;;4.50;1.50;;;;;;;;;;5060333;28;20460;-73
2023/03/28 13:13:00;;;;;;;8.03;2.30;;;;;;;;;;5066625;28;20474;-73
2023/03/28 13:15:30;;;;;;;4.93;1.67;;;;;;;;;;5051060;28;20489;-73
2023/03/28 13:18:18;;;;;;;5.50;2.53;;;;;;;;;;5048765;28;20461;-72
2023/03/28 13:20:50;;;;;;;3.10;1.27;;;;;;;;;;5047327;28;20682;-72
2023/03/28 13:23:18;;;;;;;7.17;1.27;;;;;;;;;;5048189;28;20894;-72
2023/03/28 13:25:57;;;;;;;5.20;1.57;;;;;;;;;;5059134;28;20465;-72
2023/03/28 13:28:47;;;;;;;11.10;6.87;;;;;;;;;;5068412;28;20500;-71
2023/03/28 13:31:25;;;;;;;4.10;1.27;;;;;;;;;;5067731;28;20464;-70
2023/03/28 13:33:57;;;;;;;8.40;1.53;;;;;;;;;;5067279;28;20460;-71
2023/03/28 13:36:33;;;;;;;7.47;3.50;;;;;;;;;;5067058;28;20449;-72
2023/03/28 13:39:11;;;;;;;5.67;2.57;;;;;;;;;;5070320;28;20453;-71
2023/03/28 13:41:57;;;;;;;4.30;1.60;;;;;;;;;;5067931;28;20500;-70
2023/03/28 13:44:31;;;;;;;8.20;2.80;;;;;;;;;;5070816;28;20576;-72
2023/03/28 13:47:20;;;;;;;6.40;1.63;;;;;;;;;;5058067;28;20457;-71
2023/03/28 13:52:43;;;;;;;7.85;1.83;;;;;;;;;;5060037;28;20364;-70
2023/03/28 13:55:18;;;;;;;8.00;3.00;;;;;;;;;;5070497;28;20717;-71
2023/03/28 13:57:47;;;;;;;6.67;2.60;;;;;;;;;;5072109;28;20444;-71
2023/03/28 14:00:16;;;;;;;5.80;1.60;;;;;;;;;;5072890;28;20460;-72
2023/03/28 14:02:48;;;;;;;4.97;1.90;;;;;;;;;;5069682;28;20474;-72
2023/03/28 14:05:21;;;;;;;5.27;1.83;;;;;;;;;;5058009;28;20233;-72
2023/03/28 14:07:56;;;;;;;8.60;4.60;;;;;;;;;;5071096;28;20453;-71
2023/03/28 14:10:29;;;;;;;6.97;2.50;;;;;;;;;;5066488;28;20464;-72
2023/03/28 14:12:58;;;;;;;4.40;1.77;;;;;;;;;;5066029;28;20487;-71
2023/03/28 14:15:28;;;;;;;3.83;1.83;;;;;;;;;;5068285;28;20611;-72
2023/03/28 14:17:57;;;;;;;13.77;2.10;;;;;;;;;;5069881;28;20461;-72
2023/03/28 14:20:25;;;;;;;12.10;1.97;;;;;;;;;;5070529;28;20445;-72
2023/03/28 14:22:53;;;;;;;3.85;1.75;;;;;;;;;;5071963;28;20753;-71
2023/03/28 14:25:24;;;;;;;5.55;1.10;;;;;;;;;;5069631;28;20329;-72
2023/03/28 14:28:03;;;;;;;5.50;1.50;;;;;;;;;;5067024;28;20203;-72
2023/03/28 14:30:44;;;;;;;3.87;1.20;;;;;;;;;;5071181;28;20558;-72
2023/03/28 14:33:19;;;;;;;4.20;1.63;;;;;;;;;;5069444;28;20521;-72
2023/03/28 14:36:21;;;;;;;6.93;2.33;;;;;;;;;;5063344;28;20482;-70
2023/03/28 14:38:57;;;;;;;5.38;1.65;;;;;;;;;;5051097;28;20461;-72
2023/03/28 14:41:31;;;;;;;8.43;1.43;;;;;;;;;;5051361;28;20203;-71
2023/03/28 14:43:59;;;;;;;6.07;1.70;;;;;;;;;;5052524;28;20451;-71
2023/03/28 14:46:29;;;;;;;4.87;1.70;;;;;;;;;;5034499;28;21119;-73
2023/03/28 14:49:11;;;;;;;7.77;1.83;;;;;;;;;;5069614;28;20476;-71
2023/03/28 14:51:53;;;;;;;8.47;1.57;;;;;;;;;;5073406;28;20461;-71
2023/03/28 14:54:23;;;;;;;6.57;3.13;;;;;;;;;;5071359;28;20461;-71
2023/03/28 14:57:06;;;;;;;;;;;;;;;;;;;;;
2023/03/28 14:59:39;;;;;;;5.40;1.83;;;;;;;;;;5071724;28;20436;-72
2023/03/28 15:02:17;;;;;;;6.97;1.48;;;;;;;;;;5071816;28;20479;-72
2023/03/28 15:04:55;;;;;;;6.73;1.20;;;;;;;;;;5066873;28;20959;-72
2023/03/28 15:10:25;;;;;;;4.00;1.60;;;;;;;;;;5065642;28;20209;-72
2023/03/28 15:13:10;;;;;;;5.53;2.73;;;;;;;;;;5069886;28;20463;-73
2023/03/28 15:15:43;;;;;;;8.27;3.67;;;;;;;;;;5063673;28;20499;-73
2023/03/28 15:18:12;;;;;;;7.37;1.97;;;;;;;;;;5071235;28;20436;-72
2023/03/28 15:20:43;;;;;;;12.43;2.67;;;;;;;;;;5070580;28;20491;-73
2023/03/28 15:23:15;;;;;;;5.68;1.38;;;;;;;;;;5074176;28;20217;-72
2023/03/28 15:25:43;;;;;;;8.10;1.77;;;;;;;;;;5054237;28;20234;-72
2023/03/28 15:28:10;;;;;;;6.90;2.60;;;;;;;;;;5057441;28;20719;-73
2023/03/28 15:30:42;;;;;;;15.87;3.97;;;;;;;;;;5073777;28;20460;-73
2023/03/28 15:33:17;;;;;;;14.83;6.97;;;;;;;;;;5068573;28;20496;-73
2023/03/28 15:36:05;;;;;;;17.70;5.50;;;;;;;;;;5072182;28;20490;-72
2023/03/28 15:38:32;;;;;;;6.27;2.70;;;;;;;;;;5073293;28;20945;-71
2023/03/28 15:41:13;;;;;;;9.18;1.77;;;;;;;;;;5071615;28;20724;-71
2023/03/28 15:43:41;;;;;;;5.67;2.43;;;;;;;;;;5070160;28;20202;-72
2023/03/28 15:46:13;;;;;;;7.57;3.05;;;;;;;;;;5059563;28;20453;-72
2023/03/28 15:48:42;;;;;;;6.70;2.50;;;;;;;;;;5051148;28;20897;-72
2023/03/28 15:51:20;;;;;;;8.30;2.57;;;;;;;;;;5056492;28;20695;-72
2023/03/28 15:53:53;;;;;;;9.53;3.00;;;;;;;;;;5069423;28;20892;-72